Mimitsu — 3ETU4 — position and weather

sailwx.info

Track history (hours):
 
Tides and Currents Weather Stations Pressure Air Temp Water Temp Dewpoint Dewpoint Depression Visibility Wind Speed Wind Dir Waves Ship Positions

Mimitsu

Last reported at 2017-Nov-15 05:28 UTC. Time now 2017-Nov-25 04:12 UTC.
Position N 01°16' E 103°23'.
Warning: this ship's position is 9 days out of date.

Length 185 m; draft 9.9 m.

Type: Cargo ship. MMSI: 373471000.

Date/timePositionNaut miles runAvg speedWind from/ knotsBaromVisibWave heightAir tempDewpointWater temp
2017-Nov-15 05:28N 01°16' E 103°23'510.1
2017-Nov-15 05:00N 01°14' E 103°27'510.2
2017-Nov-15 04:30N 01°13' E 103°32'5 9.7
2017-Nov-15 04:00N 01°11' E 103°37'5 9.1
2017-Nov-15 03:30N 01°10' E 103°41'4 8.5
2017-Nov-15 03:00N 01°09' E 103°45'510.8
2017-Nov-15 02:30N 01°11' E 103°50'510.2
2017-Nov-15 02:00N 01°13' E 103°54'4 8.6
2017-Nov-15 01:30N 01°16' E 103°58'2 3.1
2017-Nov-15 01:00N 01°17' E 103°58'0 0.0
2017-Nov-14 20:32N 01°17' E 103°58'0 0.2
2017-Nov-14 20:08N 01°17' E 103°58'0 0.1
2017-Nov-14 19:59N 01°17' E 103°58'0 0.0
2017-Nov-14 19:29N 01°17' E 103°58'0 0.0
2017-Nov-14 18:47N 01°17' E 103°58'0 0.0
2017-Nov-14 18:23N 01°17' E 103°58'0 0.0
2017-Nov-14 17:08N 01°17' E 103°58'0 0.0
2017-Nov-14 15:47N 01°17' E 103°58'0 0.1
2017-Nov-14 15:29N 01°17' E 103°58'0 0.0
2017-Nov-14 14:41N 01°17' E 103°58'0 0.2
2017-Nov-14 14:29N 01°17' E 103°58'0 0.1
2017-Nov-14 12:26N 01°17' E 103°58'0 0.0
2017-Nov-14 11:23N 01°17' E 103°58'0 0.1
2017-Nov-14 10:50N 01°17' E 103°58'2 5.2
2017-Nov-14 10:25N 01°16' E 103°60'  
Track history (hours):
 
Tides and Currents Weather Stations Pressure Air Temp Water Temp Dewpoint Dewpoint Depression Visibility Wind Speed Wind Dir Waves Ship Positions

Mimitsu

Last reported at 2017-Nov-15 05:28 UTC. Time now 2017-Nov-25 04:12 UTC.
Position N 01°16' E 103°23'.
Warning: this ship's position is 9 days out of date.

Length 185 m; draft 9.9 m.

Type: Cargo ship. MMSI: 373471000.

Date/timePositionNaut miles runAvg speedWind from/ knotsBaromVisibWave heightAir tempDewpointWater temp
2017-Nov-15 05:28N 01°16' E 103°23'510.1
2017-Nov-15 05:00N 01°14' E 103°27'510.2
2017-Nov-15 04:30N 01°13' E 103°32'5 9.7
2017-Nov-15 04:00N 01°11' E 103°37'5 9.1
2017-Nov-15 03:30N 01°10' E 103°41'4 8.5
2017-Nov-15 03:00N 01°09' E 103°45'510.8
2017-Nov-15 02:30N 01°11' E 103°50'510.2
2017-Nov-15 02:00N 01°13' E 103°54'4 8.6
2017-Nov-15 01:30N 01°16' E 103°58'2 3.1
2017-Nov-15 01:00N 01°17' E 103°58'0 0.0
2017-Nov-14 20:32N 01°17' E 103°58'0 0.2
2017-Nov-14 20:08N 01°17' E 103°58'0 0.1
2017-Nov-14 19:59N 01°17' E 103°58'0 0.0
2017-Nov-14 19:29N 01°17' E 103°58'0 0.0
2017-Nov-14 18:47N 01°17' E 103°58'0 0.0
2017-Nov-14 18:23N 01°17' E 103°58'0 0.0
2017-Nov-14 17:08N 01°17' E 103°58'0 0.0
2017-Nov-14 15:47N 01°17' E 103°58'0 0.1
2017-Nov-14 15:29N 01°17' E 103°58'0 0.0
2017-Nov-14 14:41N 01°17' E 103°58'0 0.2
2017-Nov-14 14:29N 01°17' E 103°58'0 0.1
2017-Nov-14 12:26N 01°17' E 103°58'0 0.0
2017-Nov-14 11:23N 01°17' E 103°58'0 0.1
2017-Nov-14 10:50N 01°17' E 103°58'2 5.2
2017-Nov-14 10:25N 01°16' E 103°60'  

Dump ship's entire track history